sensor_id;sensor_type;location;lat;lon;timestamp;P1;durP1;ratioP1;P2;durP2;ratioP2
5819;SDS011;2936;47.348;9.640;2023-01-20T00:01:24;24.10;;;9.10;;
5819;SDS011;2936;47.348;9.640;2023-01-20T00:03:51;33.10;;;8.63;;
5819;SDS011;2936;47.348;9.640;2023-01-20T00:06:19;22.65;;;8.38;;
5819;SDS011;2936;47.348;9.640;2023-01-20T00:08:49;26.65;;;10.02;;
5819;SDS011;2936;47.348;9.640;2023-01-20T00:11:19;18.20;;;8.65;;
5819;SDS011;2936;47.348;9.640;2023-01-20T00:13:49;15.50;;;8.13;;
5819;SDS011;2936;47.348;9.640;2023-01-20T00:16:19;10.00;;;7.35;;
5819;SDS011;2936;47.348;9.640;2023-01-20T00:18:46;13.40;;;7.35;;
5819;SDS011;2936;47.348;9.640;2023-01-20T00:21:13;13.50;;;7.35;;
5819;SDS011;2936;47.348;9.640;2023-01-20T00:23:41;10.60;;;7.10;;
5819;SDS011;2936;47.348;9.640;2023-01-20T00:26:10;13.15;;;7.88;;
5819;SDS011;2936;47.348;9.640;2023-01-20T00:28:37;26.15;;;7.93;;
5819;SDS011;2936;47.348;9.640;2023-01-20T00:31:13;17.08;;;7.32;;
5819;SDS011;2936;47.348;9.640;2023-01-20T00:33:40;13.90;;;7.20;;
5819;SDS011;2936;47.348;9.640;2023-01-20T00:36:08;11.85;;;6.80;;
5819;SDS011;2936;47.348;9.640;2023-01-20T00:38:36;13.55;;;8.35;;
5819;SDS011;2936;47.348;9.640;2023-01-20T00:41:04;11.20;;;7.65;;
5819;SDS011;2936;47.348;9.640;2023-01-20T00:43:31;25.55;;;7.07;;
5819;SDS011;2936;47.348;9.640;2023-01-20T00:45:59;7.20;;;5.80;;
5819;SDS011;2936;47.348;9.640;2023-01-20T00:48:27;8.75;;;6.75;;
5819;SDS011;2936;47.348;9.640;2023-01-20T00:50:55;10.43;;;6.70;;
5819;SDS011;2936;47.348;9.640;2023-01-20T00:53:22;9.02;;;5.90;;
5819;SDS011;2936;47.348;9.640;2023-01-20T00:55:49;10.48;;;6.68;;
5819;SDS011;2936;47.348;9.640;2023-01-20T00:58:17;9.15;;;6.20;;
5819;SDS011;2936;47.348;9.640;2023-01-20T01:00:45;12.35;;;6.18;;
5819;SDS011;2936;47.348;9.640;2023-01-20T01:03:12;5.80;;;5.20;;
5819;SDS011;2936;47.348;9.640;2023-01-20T01:05:41;4.85;;;4.45;;
5819;SDS011;2936;47.348;9.640;2023-01-20T01:08:08;8.48;;;5.13;;
5819;SDS011;2936;47.348;9.640;2023-01-20T01:10:36;8.32;;;5.82;;
5819;SDS011;2936;47.348;9.640;2023-01-20T01:13:04;7.38;;;5.15;;
5819;SDS011;2936;47.348;9.640;2023-01-20T01:15:32;5.70;;;4.63;;
5819;SDS011;2936;47.348;9.640;2023-01-20T01:17:59;7.45;;;4.60;;
5819;SDS011;2936;47.348;9.640;2023-01-20T01:20:27;6.50;;;4.90;;
5819;SDS011;2936;47.348;9.640;2023-01-20T01:22:55;5.15;;;4.65;;
5819;SDS011;2936;47.348;9.640;2023-01-20T01:25:23;4.60;;;4.10;;
5819;SDS011;2936;47.348;9.640;2023-01-20T01:27:50;9.02;;;4.35;;
5819;SDS011;2936;47.348;9.640;2023-01-20T01:30:17;8.07;;;4.50;;
5819;SDS011;2936;47.348;9.640;2023-01-20T01:32:45;8.50;;;3.92;;
5819;SDS011;2936;47.348;9.640;2023-01-20T01:35:13;7.20;;;3.95;;
5819;SDS011;2936;47.348;9.640;2023-01-20T01:37:41;4.30;;;3.97;;
5819;SDS011;2936;47.348;9.640;2023-01-20T01:40:11;8.70;;;4.93;;
5819;SDS011;2936;47.348;9.640;2023-01-20T01:42:38;12.65;;;4.20;;
5819;SDS011;2936;47.348;9.640;2023-01-20T01:45:15;10.88;;;5.60;;
5819;SDS011;2936;47.348;9.640;2023-01-20T01:47:44;6.35;;;4.22;;
5819;SDS011;2936;47.348;9.640;2023-01-20T01:50:12;8.85;;;4.50;;
5819;SDS011;2936;47.348;9.640;2023-01-20T01:52:41;9.82;;;4.18;;
5819;SDS011;2936;47.348;9.640;2023-01-20T01:55:11;10.00;;;4.22;;
5819;SDS011;2936;47.348;9.640;2023-01-20T01:57:39;4.57;;;4.20;;
5819;SDS011;2936;47.348;9.640;2023-01-20T02:00:07;5.03;;;4.63;;
5819;SDS011;2936;47.348;9.640;2023-01-20T02:02:34;13.88;;;5.65;;
5819;SDS011;2936;47.348;9.640;2023-01-20T02:05:02;5.47;;;5.00;;
5819;SDS011;2936;47.348;9.640;2023-01-20T02:07:30;11.50;;;5.15;;
5819;SDS011;2936;47.348;9.640;2023-01-20T02:09:58;6.57;;;5.40;;
5819;SDS011;2936;47.348;9.640;2023-01-20T02:12:27;8.73;;;5.50;;
5819;SDS011;2936;47.348;9.640;2023-01-20T02:14:55;7.18;;;5.55;;
5819;SDS011;2936;47.348;9.640;2023-01-20T02:17:24;12.25;;;5.20;;
5819;SDS011;2936;47.348;9.640;2023-01-20T02:20:10;9.93;;;6.78;;
5819;SDS011;2936;47.348;9.640;2023-01-20T02:22:43;8.00;;;5.72;;
5819;SDS011;2936;47.348;9.640;2023-01-20T02:31:00;13.43;;;5.05;;
5819;SDS011;2936;47.348;9.640;2023-01-20T02:33:34;5.93;;;5.30;;
5819;SDS011;2936;47.348;9.640;2023-01-20T02:36:05;10.93;;;4.82;;
5819;SDS011;2936;47.348;9.640;2023-01-20T02:38:34;4.70;;;4.28;;
5819;SDS011;2936;47.348;9.640;2023-01-20T02:41:05;3.78;;;3.55;;
5819;SDS011;2936;47.348;9.640;2023-01-20T02:43:35;4.68;;;4.28;;
5819;SDS011;2936;47.348;9.640;2023-01-20T02:46:07;5.95;;;3.95;;
5819;SDS011;2936;47.348;9.640;2023-01-20T02:48:37;4.75;;;4.05;;
5819;SDS011;2936;47.348;9.640;2023-01-20T02:51:07;5.28;;;4.88;;
5819;SDS011;2936;47.348;9.640;2023-01-20T02:53:37;4.75;;;4.40;;
5819;SDS011;2936;47.348;9.640;2023-01-20T02:56:06;6.28;;;4.35;;
5819;SDS011;2936;47.348;9.640;2023-01-20T02:58:35;7.18;;;4.90;;
5819;SDS011;2936;47.348;9.640;2023-01-20T03:01:06;8.65;;;4.65;;
5819;SDS011;2936;47.348;9.640;2023-01-20T03:03:36;6.03;;;4.95;;
5819;SDS011;2936;47.348;9.640;2023-01-20T03:06:06;4.68;;;3.83;;
5819;SDS011;2936;47.348;9.640;2023-01-20T03:08:34;5.13;;;4.70;;
5819;SDS011;2936;47.348;9.640;2023-01-20T03:11:03;4.13;;;3.80;;
5819;SDS011;2936;47.348;9.640;2023-01-20T03:13:33;4.93;;;4.40;;
5819;SDS011;2936;47.348;9.640;2023-01-20T03:16:02;4.63;;;4.13;;
5819;SDS011;2936;47.348;9.640;2023-01-20T03:18:30;5.20;;;4.35;;
5819;SDS011;2936;47.348;9.640;2023-01-20T03:20:58;4.32;;;3.92;;
5819;SDS011;2936;47.348;9.640;2023-01-20T03:23:29;4.00;;;3.67;;
5819;SDS011;2936;47.348;9.640;2023-01-20T03:25:58;4.75;;;3.78;;
5819;SDS011;2936;47.348;9.640;2023-01-20T03:28:25;4.53;;;4.10;;
5819;SDS011;2936;47.348;9.640;2023-01-20T03:30:52;15.30;;;4.28;;
5819;SDS011;2936;47.348;9.640;2023-01-20T03:33:21;4.70;;;4.30;;
5819;SDS011;2936;47.348;9.640;2023-01-20T03:35:49;4.22;;;3.92;;
5819;SDS011;2936;47.348;9.640;2023-01-20T03:38:16;5.82;;;4.65;;
5819;SDS011;2936;47.348;9.640;2023-01-20T03:40:47;8.95;;;3.50;;
5819;SDS011;2936;47.348;9.640;2023-01-20T03:43:18;20.52;;;4.30;;
5819;SDS011;2936;47.348;9.640;2023-01-20T03:45:49;8.35;;;3.70;;
5819;SDS011;2936;47.348;9.640;2023-01-20T03:48:22;5.85;;;4.15;;
5819;SDS011;2936;47.348;9.640;2023-01-20T03:50:53;4.25;;;3.95;;
5819;SDS011;2936;47.348;9.640;2023-01-20T03:53:26;5.60;;;3.92;;
5819;SDS011;2936;47.348;9.640;2023-01-20T03:55:57;7.15;;;4.32;;
5819;SDS011;2936;47.348;9.640;2023-01-20T03:58:27;5.40;;;3.55;;
5819;SDS011;2936;47.348;9.640;2023-01-20T04:00:56;6.55;;;3.03;;
5819;SDS011;2936;47.348;9.640;2023-01-20T04:03:24;8.82;;;3.58;;
5819;SDS011;2936;47.348;9.640;2023-01-20T04:05:52;4.80;;;4.40;;
5819;SDS011;2936;47.348;9.640;2023-01-20T04:08:21;4.00;;;3.70;;
5819;SDS011;2936;47.348;9.640;2023-01-20T04:10:51;5.97;;;3.92;;
5819;SDS011;2936;47.348;9.640;2023-01-20T04:13:20;21.23;;;4.95;;
5819;SDS011;2936;47.348;9.640;2023-01-20T04:15:47;22.38;;;4.70;;
5819;SDS011;2936;47.348;9.640;2023-01-20T04:18:16;5.80;;;4.15;;
5819;SDS011;2936;47.348;9.640;2023-01-20T04:20:44;5.78;;;4.32;;
5819;SDS011;2936;47.348;9.640;2023-01-20T04:23:13;4.78;;;4.38;;
5819;SDS011;2936;47.348;9.640;2023-01-20T04:25:43;9.60;;;4.55;;
5819;SDS011;2936;47.348;9.640;2023-01-20T04:28:10;13.45;;;5.07;;
5819;SDS011;2936;47.348;9.640;2023-01-20T04:30:39;11.23;;;5.57;;
5819;SDS011;2936;47.348;9.640;2023-01-20T04:33:06;5.97;;;5.35;;
5819;SDS011;2936;47.348;9.640;2023-01-20T04:35:34;8.13;;;3.85;;
5819;SDS011;2936;47.348;9.640;2023-01-20T04:38:01;10.15;;;4.82;;
5819;SDS011;2936;47.348;9.640;2023-01-20T04:40:28;4.88;;;3.90;;
5819;SDS011;2936;47.348;9.640;2023-01-20T04:42:55;5.13;;;4.05;;
5819;SDS011;2936;47.348;9.640;2023-01-20T04:45:23;9.70;;;4.82;;
5819;SDS011;2936;47.348;9.640;2023-01-20T04:47:51;5.55;;;5.05;;
5819;SDS011;2936;47.348;9.640;2023-01-20T04:50:18;4.32;;;4.03;;
5819;SDS011;2936;47.348;9.640;2023-01-20T04:52:46;15.25;;;4.97;;
5819;SDS011;2936;47.348;9.640;2023-01-20T04:55:13;6.15;;;4.53;;
5819;SDS011;2936;47.348;9.640;2023-01-20T04:57:40;10.13;;;4.28;;
5819;SDS011;2936;47.348;9.640;2023-01-20T05:00:09;9.43;;;4.20;;
5819;SDS011;2936;47.348;9.640;2023-01-20T05:02:38;24.15;;;5.10;;
5819;SDS011;2936;47.348;9.640;2023-01-20T05:05:08;16.40;;;4.78;;
5819;SDS011;2936;47.348;9.640;2023-01-20T05:07:35;13.32;;;5.03;;
5819;SDS011;2936;47.348;9.640;2023-01-20T05:10:02;7.38;;;5.13;;
5819;SDS011;2936;47.348;9.640;2023-01-20T05:12:30;9.30;;;4.50;;
5819;SDS011;2936;47.348;9.640;2023-01-20T05:14:57;26.02;;;6.00;;
5819;SDS011;2936;47.348;9.640;2023-01-20T05:17:27;37.05;;;8.50;;
5819;SDS011;2936;47.348;9.640;2023-01-20T05:19:54;21.17;;;6.05;;
5819;SDS011;2936;47.348;9.640;2023-01-20T05:22:23;25.63;;;5.85;;
5819;SDS011;2936;47.348;9.640;2023-01-20T05:24:50;21.55;;;6.22;;
5819;SDS011;2936;47.348;9.640;2023-01-20T05:27:18;25.73;;;6.22;;
5819;SDS011;2936;47.348;9.640;2023-01-20T05:29:45;20.20;;;5.57;;
5819;SDS011;2936;47.348;9.640;2023-01-20T05:32:12;11.13;;;5.57;;
5819;SDS011;2936;47.348;9.640;2023-01-20T05:34:39;7.15;;;5.25;;
5819;SDS011;2936;47.348;9.640;2023-01-20T05:37:07;14.35;;;6.20;;
5819;SDS011;2936;47.348;9.640;2023-01-20T05:39:35;11.65;;;8.65;;
5819;SDS011;2936;47.348;9.640;2023-01-20T05:42:03;12.93;;;9.43;;
5819;SDS011;2936;47.348;9.640;2023-01-20T05:44:30;16.95;;;9.40;;
5819;SDS011;2936;47.348;9.640;2023-01-20T05:46:57;13.05;;;8.40;;
5819;SDS011;2936;47.348;9.640;2023-01-20T05:49:24;16.73;;;8.25;;
5819;SDS011;2936;47.348;9.640;2023-01-20T05:51:52;14.30;;;7.97;;
5819;SDS011;2936;47.348;9.640;2023-01-20T05:54:19;15.85;;;7.55;;
5819;SDS011;2936;47.348;9.640;2023-01-20T05:56:48;22.17;;;8.80;;
5819;SDS011;2936;47.348;9.640;2023-01-20T05:59:15;18.58;;;8.25;;
5819;SDS011;2936;47.348;9.640;2023-01-20T06:01:42;16.40;;;7.40;;
5819;SDS011;2936;47.348;9.640;2023-01-20T06:04:10;11.65;;;8.25;;
5819;SDS011;2936;47.348;9.640;2023-01-20T06:06:37;13.27;;;8.10;;
5819;SDS011;2936;47.348;9.640;2023-01-20T06:09:04;10.85;;;7.10;;
5819;SDS011;2936;47.348;9.640;2023-01-20T06:11:31;15.00;;;7.55;;
5819;SDS011;2936;47.348;9.640;2023-01-20T06:14:00;26.83;;;8.60;;
5819;SDS011;2936;47.348;9.640;2023-01-20T06:16:27;27.45;;;10.43;;
5819;SDS011;2936;47.348;9.640;2023-01-20T06:18:55;12.32;;;7.38;;
5819;SDS011;2936;47.348;9.640;2023-01-20T06:21:22;14.30;;;9.70;;
5819;SDS011;2936;47.348;9.640;2023-01-20T06:23:50;12.10;;;8.55;;
5819;SDS011;2936;47.348;9.640;2023-01-20T06:26:17;21.92;;;8.65;;
5819;SDS011;2936;47.348;9.640;2023-01-20T06:28:44;18.77;;;9.25;;
5819;SDS011;2936;47.348;9.640;2023-01-20T06:31:13;19.30;;;8.23;;
5819;SDS011;2936;47.348;9.640;2023-01-20T06:33:41;16.52;;;9.20;;
5819;SDS011;2936;47.348;9.640;2023-01-20T06:36:08;14.68;;;8.70;;
5819;SDS011;2936;47.348;9.640;2023-01-20T06:38:37;20.20;;;9.45;;
5819;SDS011;2936;47.348;9.640;2023-01-20T06:41:06;32.60;;;12.02;;
5819;SDS011;2936;47.348;9.640;2023-01-20T06:43:36;30.25;;;9.90;;
5819;SDS011;2936;47.348;9.640;2023-01-20T06:46:06;42.53;;;10.65;;
5819;SDS011;2936;47.348;9.640;2023-01-20T06:48:35;23.90;;;8.75;;
5819;SDS011;2936;47.348;9.640;2023-01-20T06:51:03;11.25;;;8.00;;
5819;SDS011;2936;47.348;9.640;2023-01-20T06:53:30;16.42;;;8.20;;
5819;SDS011;2936;47.348;9.640;2023-01-20T06:55:58;14.15;;;6.82;;
5819;SDS011;2936;47.348;9.640;2023-01-20T06:58:27;17.85;;;6.60;;
5819;SDS011;2936;47.348;9.640;2023-01-20T07:00:55;28.35;;;7.45;;
5819;SDS011;2936;47.348;9.640;2023-01-20T07:03:22;10.25;;;5.95;;
5819;SDS011;2936;47.348;9.640;2023-01-20T07:05:53;9.18;;;5.63;;
5819;SDS011;2936;47.348;9.640;2023-01-20T07:08:22;13.85;;;7.10;;
5819;SDS011;2936;47.348;9.640;2023-01-20T07:10:49;19.15;;;6.75;;
5819;SDS011;2936;47.348;9.640;2023-01-20T07:13:18;13.85;;;10.02;;
5819;SDS011;2936;47.348;9.640;2023-01-20T07:15:45;9.77;;;6.88;;
5819;SDS011;2936;47.348;9.640;2023-01-20T07:18:12;17.80;;;6.07;;
5819;SDS011;2936;47.348;9.640;2023-01-20T07:20:40;12.55;;;6.15;;
5819;SDS011;2936;47.348;9.640;2023-01-20T07:23:09;41.70;;;7.32;;
5819;SDS011;2936;47.348;9.640;2023-01-20T07:25:36;12.73;;;7.95;;
5819;SDS011;2936;47.348;9.640;2023-01-20T07:28:04;18.35;;;8.10;;
5819;SDS011;2936;47.348;9.640;2023-01-20T07:30:31;23.38;;;8.10;;
5819;SDS011;2936;47.348;9.640;2023-01-20T07:32:58;30.17;;;6.70;;
5819;SDS011;2936;47.348;9.640;2023-01-20T07:35:26;9.13;;;6.95;;
5819;SDS011;2936;47.348;9.640;2023-01-20T07:37:53;19.50;;;7.40;;
5819;SDS011;2936;47.348;9.640;2023-01-20T07:40:22;28.52;;;7.63;;
5819;SDS011;2936;47.348;9.640;2023-01-20T07:42:49;20.13;;;6.55;;
5819;SDS011;2936;47.348;9.640;2023-01-20T07:45:18;34.92;;;7.35;;
5819;SDS011;2936;47.348;9.640;2023-01-20T07:47:45;17.33;;;6.40;;
5819;SDS011;2936;47.348;9.640;2023-01-20T07:50:17;14.52;;;6.50;;
5819;SDS011;2936;47.348;9.640;2023-01-20T07:52:44;9.15;;;6.10;;
5819;SDS011;2936;47.348;9.640;2023-01-20T07:55:11;19.52;;;8.48;;
5819;SDS011;2936;47.348;9.640;2023-01-20T07:57:40;23.40;;;7.03;;
5819;SDS011;2936;47.348;9.640;2023-01-20T08:00:08;9.25;;;6.30;;
5819;SDS011;2936;47.348;9.640;2023-01-20T08:02:37;8.50;;;5.63;;
5819;SDS011;2936;47.348;9.640;2023-01-20T08:05:05;21.00;;;6.63;;
5819;SDS011;2936;47.348;9.640;2023-01-20T08:07:32;18.30;;;7.72;;
5819;SDS011;2936;47.348;9.640;2023-01-20T08:10:00;16.83;;;7.75;;
5819;SDS011;2936;47.348;9.640;2023-01-20T08:12:27;18.63;;;6.70;;
5819;SDS011;2936;47.348;9.640;2023-01-20T08:14:56;32.50;;;7.85;;
5819;SDS011;2936;47.348;9.640;2023-01-20T08:17:23;13.30;;;6.35;;
5819;SDS011;2936;47.348;9.640;2023-01-20T08:19:50;8.77;;;6.30;;
5819;SDS011;2936;47.348;9.640;2023-01-20T08:22:17;47.08;;;7.68;;
5819;SDS011;2936;47.348;9.640;2023-01-20T08:24:45;13.32;;;6.60;;
5819;SDS011;2936;47.348;9.640;2023-01-20T08:27:12;20.35;;;6.75;;
5819;SDS011;2936;47.348;9.640;2023-01-20T08:29:40;9.93;;;6.50;;
5819;SDS011;2936;47.348;9.640;2023-01-20T08:32:08;43.67;;;8.43;;
5819;SDS011;2936;47.348;9.640;2023-01-20T08:34:36;20.75;;;6.82;;
5819;SDS011;2936;47.348;9.640;2023-01-20T08:37:03;22.00;;;6.40;;
5819;SDS011;2936;47.348;9.640;2023-01-20T08:39:30;10.65;;;6.32;;
5819;SDS011;2936;47.348;9.640;2023-01-20T08:41:58;21.85;;;6.60;;
5819;SDS011;2936;47.348;9.640;2023-01-20T08:44:25;16.23;;;6.10;;
5819;SDS011;2936;47.348;9.640;2023-01-20T08:46:53;24.15;;;7.10;;
5819;SDS011;2936;47.348;9.640;2023-01-20T08:49:24;11.15;;;5.97;;
5819;SDS011;2936;47.348;9.640;2023-01-20T08:51:52;25.73;;;6.32;;
5819;SDS011;2936;47.348;9.640;2023-01-20T08:54:20;10.07;;;6.80;;
5819;SDS011;2936;47.348;9.640;2023-01-20T08:56:48;16.65;;;7.03;;
5819;SDS011;2936;47.348;9.640;2023-01-20T08:59:16;13.43;;;6.30;;
5819;SDS011;2936;47.348;9.640;2023-01-20T09:01:43;11.88;;;7.07;;
5819;SDS011;2936;47.348;9.640;2023-01-20T09:04:10;10.05;;;6.43;;
5819;SDS011;2936;47.348;9.640;2023-01-20T09:06:40;19.73;;;8.35;;
5819;SDS011;2936;47.348;9.640;2023-01-20T09:09:08;14.13;;;8.10;;
5819;SDS011;2936;47.348;9.640;2023-01-20T09:11:35;19.85;;;8.63;;
5819;SDS011;2936;47.348;9.640;2023-01-20T09:14:03;11.48;;;7.70;;
5819;SDS011;2936;47.348;9.640;2023-01-20T09:16:30;17.80;;;8.52;;
5819;SDS011;2936;47.348;9.640;2023-01-20T09:19:01;18.92;;;8.50;;
5819;SDS011;2936;47.348;9.640;2023-01-20T09:21:28;12.15;;;6.97;;
5819;SDS011;2936;47.348;9.640;2023-01-20T09:23:57;20.77;;;7.40;;
5819;SDS011;2936;47.348;9.640;2023-01-20T09:26:24;29.02;;;8.65;;
5819;SDS011;2936;47.348;9.640;2023-01-20T09:28:52;21.95;;;7.00;;
5819;SDS011;2936;47.348;9.640;2023-01-20T09:31:19;19.17;;;7.85;;
5819;SDS011;2936;47.348;9.640;2023-01-20T09:33:46;18.25;;;8.00;;
5819;SDS011;2936;47.348;9.640;2023-01-20T09:36:14;20.35;;;8.88;;
5819;SDS011;2936;47.348;9.640;2023-01-20T09:38:42;33.88;;;8.65;;
5819;SDS011;2936;47.348;9.640;2023-01-20T09:41:29;9.77;;;6.80;;
5819;SDS011;2936;47.348;9.640;2023-01-20T09:44:18;7.97;;;6.72;;
5819;SDS011;2936;47.348;9.640;2023-01-20T09:46:54;27.42;;;8.48;;
5819;SDS011;2936;47.348;9.640;2023-01-20T09:49:50;7.15;;;5.30;;
5819;SDS011;2936;47.348;9.640;2023-01-20T09:52:39;15.50;;;6.68;;
5819;SDS011;2936;47.348;9.640;2023-01-20T09:55:25;33.25;;;10.60;;
5819;SDS011;2936;47.348;9.640;2023-01-20T09:57:57;17.23;;;6.80;;
5819;SDS011;2936;47.348;9.640;2023-01-20T10:00:27;52.58;;;8.60;;
5819;SDS011;2936;47.348;9.640;2023-01-20T10:02:57;32.88;;;7.05;;
5819;SDS011;2936;47.348;9.640;2023-01-20T10:05:26;13.40;;;7.13;;
5819;SDS011;2936;47.348;9.640;2023-01-20T10:07:57;12.05;;;6.18;;
5819;SDS011;2936;47.348;9.640;2023-01-20T10:10:30;10.57;;;6.45;;
5819;SDS011;2936;47.348;9.640;2023-01-20T10:13:04;10.40;;;6.60;;
5819;SDS011;2936;47.348;9.640;2023-01-20T10:15:35;17.98;;;7.68;;
5819;SDS011;2936;47.348;9.640;2023-01-20T10:18:04;11.48;;;6.65;;
5819;SDS011;2936;47.348;9.640;2023-01-20T10:20:34;11.38;;;7.75;;
5819;SDS011;2936;47.348;9.640;2023-01-20T10:23:04;18.73;;;7.78;;
5819;SDS011;2936;47.348;9.640;2023-01-20T10:25:37;10.57;;;6.95;;
5819;SDS011;2936;47.348;9.640;2023-01-20T10:28:08;18.15;;;7.53;;
5819;SDS011;2936;47.348;9.640;2023-01-20T10:30:36;15.02;;;7.53;;
5819;SDS011;2936;47.348;9.640;2023-01-20T10:33:05;9.32;;;7.05;;
5819;SDS011;2936;47.348;9.640;2023-01-20T10:35:35;13.73;;;6.85;;
5819;SDS011;2936;47.348;9.640;2023-01-20T10:38:06;10.10;;;7.22;;
5819;SDS011;2936;47.348;9.640;2023-01-20T10:40:35;14.18;;;6.95;;
5819;SDS011;2936;47.348;9.640;2023-01-20T10:43:10;9.00;;;7.00;;
5819;SDS011;2936;47.348;9.640;2023-01-20T10:45:44;22.90;;;8.13;;
5819;SDS011;2936;47.348;9.640;2023-01-20T10:48:17;10.32;;;6.68;;
5819;SDS011;2936;47.348;9.640;2023-01-20T10:50:53;13.70;;;7.40;;
5819;SDS011;2936;47.348;9.640;2023-01-20T10:56:08;14.63;;;7.60;;
5819;SDS011;2936;47.348;9.640;2023-01-20T10:58:41;18.33;;;6.78;;
5819;SDS011;2936;47.348;9.640;2023-01-20T11:01:12;19.10;;;7.28;;
5819;SDS011;2936;47.348;9.640;2023-01-20T11:03:41;40.58;;;10.27;;
5819;SDS011;2936;47.348;9.640;2023-01-20T11:06:09;34.35;;;8.13;;
5819;SDS011;2936;47.348;9.640;2023-01-20T11:08:43;18.25;;;7.78;;
5819;SDS011;2936;47.348;9.640;2023-01-20T11:11:12;19.80;;;7.30;;
5819;SDS011;2936;47.348;9.640;2023-01-20T11:13:42;18.48;;;8.25;;
5819;SDS011;2936;47.348;9.640;2023-01-20T11:16:10;16.02;;;7.85;;
5819;SDS011;2936;47.348;9.640;2023-01-20T11:18:39;29.17;;;7.85;;
5819;SDS011;2936;47.348;9.640;2023-01-20T11:21:06;26.33;;;8.32;;
5819;SDS011;2936;47.348;9.640;2023-01-20T11:23:35;14.15;;;8.23;;
5819;SDS011;2936;47.348;9.640;2023-01-20T11:26:03;10.40;;;8.20;;
5819;SDS011;2936;47.348;9.640;2023-01-20T11:28:36;17.63;;;7.60;;
5819;SDS011;2936;47.348;9.640;2023-01-20T11:31:11;14.85;;;7.68;;
5819;SDS011;2936;47.348;9.640;2023-01-20T11:33:38;16.90;;;8.27;;
5819;SDS011;2936;47.348;9.640;2023-01-20T11:36:08;14.88;;;7.65;;
5819;SDS011;2936;47.348;9.640;2023-01-20T11:38:43;17.80;;;7.40;;
5819;SDS011;2936;47.348;9.640;2023-01-20T11:41:18;14.38;;;8.73;;
5819;SDS011;2936;47.348;9.640;2023-01-20T11:43:46;17.30;;;9.40;;
5819;SDS011;2936;47.348;9.640;2023-01-20T11:46:21;28.15;;;10.50;;
5819;SDS011;2936;47.348;9.640;2023-01-20T11:48:49;25.48;;;10.55;;
5819;SDS011;2936;47.348;9.640;2023-01-20T11:51:20;14.73;;;7.82;;
5819;SDS011;2936;47.348;9.640;2023-01-20T11:53:49;10.77;;;8.48;;
5819;SDS011;2936;47.348;9.640;2023-01-20T11:56:17;18.50;;;8.68;;
5819;SDS011;2936;47.348;9.640;2023-01-20T11:58:47;23.10;;;8.00;;
5819;SDS011;2936;47.348;9.640;2023-01-20T12:01:18;19.33;;;9.77;;
5819;SDS011;2936;47.348;9.640;2023-01-20T12:04:02;26.75;;;9.15;;
5819;SDS011;2936;47.348;9.640;2023-01-20T12:06:34;18.42;;;8.80;;
5819;SDS011;2936;47.348;9.640;2023-01-20T12:09:04;36.45;;;10.88;;
5819;SDS011;2936;47.348;9.640;2023-01-20T12:11:35;23.83;;;8.75;;
5819;SDS011;2936;47.348;9.640;2023-01-20T12:14:13;17.42;;;8.48;;
5819;SDS011;2936;47.348;9.640;2023-01-20T12:16:47;20.38;;;8.98;;
5819;SDS011;2936;47.348;9.640;2023-01-20T12:19:18;25.88;;;9.13;;
5819;SDS011;2936;47.348;9.640;2023-01-20T12:21:47;15.23;;;7.93;;
5819;SDS011;2936;47.348;9.640;2023-01-20T12:24:17;25.98;;;10.25;;
5819;SDS011;2936;47.348;9.640;2023-01-20T12:26:46;27.90;;;9.98;;
5819;SDS011;2936;47.348;9.640;2023-01-20T12:29:16;13.63;;;8.95;;
5819;SDS011;2936;47.348;9.640;2023-01-20T12:31:45;32.00;;;8.43;;
5819;SDS011;2936;47.348;9.640;2023-01-20T12:34:15;20.27;;;7.50;;
5819;SDS011;2936;47.348;9.640;2023-01-20T12:36:56;22.88;;;13.93;;
5819;SDS011;2936;47.348;9.640;2023-01-20T12:39:28;8.50;;;7.05;;
5819;SDS011;2936;47.348;9.640;2023-01-20T12:42:06;18.55;;;6.90;;
5819;SDS011;2936;47.348;9.640;2023-01-20T12:44:37;16.45;;;8.80;;
5819;SDS011;2936;47.348;9.640;2023-01-20T12:47:08;11.40;;;7.50;;
5819;SDS011;2936;47.348;9.640;2023-01-20T12:49:42;15.43;;;6.97;;
5819;SDS011;2936;47.348;9.640;2023-01-20T12:52:22;14.15;;;9.30;;
5819;SDS011;2936;47.348;9.640;2023-01-20T12:55:01;8.40;;;7.18;;
5819;SDS011;2936;47.348;9.640;2023-01-20T12:57:40;7.75;;;6.75;;
5819;SDS011;2936;47.348;9.640;2023-01-20T13:00:17;21.65;;;7.30;;
5819;SDS011;2936;47.348;9.640;2023-01-20T13:02:57;7.50;;;6.75;;
5819;SDS011;2936;47.348;9.640;2023-01-20T13:08:16;21.23;;;10.30;;
5819;SDS011;2936;47.348;9.640;2023-01-20T13:10:50;20.58;;;6.32;;
5819;SDS011;2936;47.348;9.640;2023-01-20T13:13:25;19.95;;;6.20;;
5819;SDS011;2936;47.348;9.640;2023-01-20T13:15:56;23.85;;;6.70;;
5819;SDS011;2936;47.348;9.640;2023-01-20T13:18:27;11.30;;;8.02;;
5819;SDS011;2936;47.348;9.640;2023-01-20T13:21:00;23.40;;;10.20;;
5819;SDS011;2936;47.348;9.640;2023-01-20T13:23:30;39.75;;;10.75;;
5819;SDS011;2936;47.348;9.640;2023-01-20T13:25:59;19.55;;;9.40;;
5819;SDS011;2936;47.348;9.640;2023-01-20T13:28:28;21.52;;;10.77;;
5819;SDS011;2936;47.348;9.640;2023-01-20T13:30:56;20.27;;;10.40;;
5819;SDS011;2936;47.348;9.640;2023-01-20T13:33:34;13.93;;;9.18;;
5819;SDS011;2936;47.348;9.640;2023-01-20T13:36:12;37.00;;;12.50;;
5819;SDS011;2936;47.348;9.640;2023-01-20T13:38:41;19.52;;;9.65;;
5819;SDS011;2936;47.348;9.640;2023-01-20T13:41:09;15.40;;;8.70;;
5819;SDS011;2936;47.348;9.640;2023-01-20T13:49:12;20.88;;;8.27;;
5819;SDS011;2936;47.348;9.640;2023-01-20T13:51:43;26.05;;;8.90;;
5819;SDS011;2936;47.348;9.640;2023-01-20T13:57:33;21.10;;;8.63;;
5819;SDS011;2936;47.348;9.640;2023-01-20T14:00:01;16.65;;;7.82;;
5819;SDS011;2936;47.348;9.640;2023-01-20T14:02:30;22.80;;;9.80;;
5819;SDS011;2936;47.348;9.640;2023-01-20T14:05:01;11.27;;;8.05;;
5819;SDS011;2936;47.348;9.640;2023-01-20T14:07:29;22.42;;;7.03;;
5819;SDS011;2936;47.348;9.640;2023-01-20T14:09:58;11.88;;;7.47;;
5819;SDS011;2936;47.348;9.640;2023-01-20T14:12:25;8.65;;;7.68;;
5819;SDS011;2936;47.348;9.640;2023-01-20T14:14:54;14.23;;;8.10;;
5819;SDS011;2936;47.348;9.640;2023-01-20T14:17:22;14.77;;;8.45;;
5819;SDS011;2936;47.348;9.640;2023-01-20T14:19:51;9.27;;;8.25;;
5819;SDS011;2936;47.348;9.640;2023-01-20T14:22:20;22.27;;;7.90;;
5819;SDS011;2936;47.348;9.640;2023-01-20T14:24:49;10.00;;;7.60;;
5819;SDS011;2936;47.348;9.640;2023-01-20T14:27:18;15.50;;;8.07;;
5819;SDS011;2936;47.348;9.640;2023-01-20T14:29:47;15.38;;;8.00;;
5819;SDS011;2936;47.348;9.640;2023-01-20T14:32:16;19.17;;;7.97;;
5819;SDS011;2936;47.348;9.640;2023-01-20T14:34:44;9.20;;;7.50;;
5819;SDS011;2936;47.348;9.640;2023-01-20T14:37:22;16.58;;;8.65;;
5819;SDS011;2936;47.348;9.640;2023-01-20T14:39:50;19.80;;;7.93;;
5819;SDS011;2936;47.348;9.640;2023-01-20T14:42:19;10.60;;;7.90;;
5819;SDS011;2936;47.348;9.640;2023-01-20T14:44:47;18.25;;;8.25;;
5819;SDS011;2936;47.348;9.640;2023-01-20T14:47:14;15.73;;;8.10;;
5819;SDS011;2936;47.348;9.640;2023-01-20T14:49:43;14.93;;;8.10;;
5819;SDS011;2936;47.348;9.640;2023-01-20T14:52:13;15.05;;;7.65;;
5819;SDS011;2936;47.348;9.640;2023-01-20T14:54:45;12.07;;;7.88;;
5819;SDS011;2936;47.348;9.640;2023-01-20T14:57:22;10.55;;;7.70;;
5819;SDS011;2936;47.348;9.640;2023-01-20T15:02:42;16.10;;;9.27;;
5819;SDS011;2936;47.348;9.640;2023-01-20T15:05:22;12.02;;;8.60;;
5819;SDS011;2936;47.348;9.640;2023-01-20T15:08:02;13.55;;;8.70;;
5819;SDS011;2936;47.348;9.640;2023-01-20T15:10:30;14.85;;;9.00;;
5819;SDS011;2936;47.348;9.640;2023-01-20T15:12:57;16.67;;;9.93;;
5819;SDS011;2936;47.348;9.640;2023-01-20T15:15:27;14.32;;;9.40;;
5819;SDS011;2936;47.348;9.640;2023-01-20T15:20:47;23.25;;;12.45;;
5819;SDS011;2936;47.348;9.640;2023-01-20T15:23:22;20.15;;;13.10;;
5819;SDS011;2936;47.348;9.640;2023-01-20T15:25:50;19.40;;;11.77;;
5819;SDS011;2936;47.348;9.640;2023-01-20T15:28:19;38.63;;;13.50;;
5819;SDS011;2936;47.348;9.640;2023-01-20T15:30:49;30.33;;;15.93;;
5819;SDS011;2936;47.348;9.640;2023-01-20T15:33:16;33.83;;;16.02;;
5819;SDS011;2936;47.348;9.640;2023-01-20T15:35:55;23.55;;;13.98;;
5819;SDS011;2936;47.348;9.640;2023-01-20T15:38:24;29.48;;;15.57;;
5819;SDS011;2936;47.348;9.640;2023-01-20T15:40:52;25.48;;;13.68;;
5819;SDS011;2936;47.348;9.640;2023-01-20T15:43:22;21.27;;;14.43;;
5819;SDS011;2936;47.348;9.640;2023-01-20T15:45:50;24.92;;;15.07;;